ルサカ の空港の天気 - METARとTAF

ケネスカウンダ国際空港 ( FLKK / LUN ) - ザンビア ルサカ
飛行場実況気象(Metar)
観測時間-
風向・風速- -
視程-
天気現象-
-
気温-
湿度-
気圧-
METAR-
過去の天気等 Google飛行場航空写真 Wunderground天気予報

過去48時間のMETAR

飛行場予報(TAF)
発表時間: 9/27 12:00 CAT (9/27 10:00 UTC)
予報対象時間: 27日14時 CAT ~ 28日20時 CAT
風向・風速東 5m/s 瞬間風速 8m/s
視程9000m
天気現象煙霧
全天の8割程度の雲 雲底高度 1220m
27日17時 CAT から
風向・風速南南東 5m/s
視程10km以上
なし
28日5時 CAT ~ 28日9時 CAT に徐々に
風向・風速東 5m/s 瞬間風速 8m/s
28日11時 CAT ~ 28日13時 CAT に徐々に
全天の4割程度の雲 雲底高度 1070m
TAF FLKK 271000Z 2712/2818 09010G15KT 9000 HZ BKN040
FM271500 16010KT CAVOK
BECMG 2803/2807 09010G15KT
BECMG 2809/2811 SCT035